• Join FlightAware (Why Join?)
  • Login
  • US Flag 
11:21AM EDT


 

Airport Tracker/Info


-or-


 

Live Flight TrackerFlight Track Log ✈ A6-ECQ ✈ 26-Apr-2013 ✈ OMDB / DXB - LEMD / MAD

Flight Track Log - Related Links

Times and Time Zones

All times are in EDT time to prevent confusion due to time zone crossing. See the A6-ECQ flight status page for this flight to view local times or setup timezone preferences in your user account.

Time Position Orientation Groundspeed Altitude Reporting Facility
EDT Latitude Longitude Course Direction KTS MPH feet Rate Location/Type
06:44AM 25.2640 55.3510 107° East 180 207 300  Level FlightAware
06:45AM 25.2870 55.3100 302° West 195 224 2,100 2,460 Climbing FlightAware
06:45AM 25.3020 55.2810 300° West 207 238 3,600 2,580 Climbing FlightAware
06:46AM 25.3070 55.2540 282° West 237 273 4,500 3,120 Climbing FlightAware
06:46AM 25.3100 55.2090 274° West 252 290 6,500 3,480 Climbing FlightAware
06:47AM 25.3110 55.1760 272° West 264 304 7,700 3,000 Climbing FlightAware
06:47AM 25.3130 55.1350 273° West 276 318 9,300 2,640 Climbing FlightAware
06:48AM 25.3170 55.0760 274° West 313 360 10,800 1,740 Climbing FlightAware
06:49AM 25.3290 54.9960 279° West 378 435 11,800 2,280 Climbing FlightAware
06:49AM 25.3510 54.9110 286° West 390 449 14,300 3,120 Climbing FlightAware
06:50AM 25.3700 54.8330 285° West 399 459 16,300 2,820 Climbing FlightAware
06:51AM 25.3900 54.7540 286° West 410 472 18,100 1,500 Climbing FlightAware
06:51AM 25.4090 54.6750 285° West 411 473 18,300 120 Climbing FlightAware
06:52AM 25.4250 54.6060 284° West 411 473 18,300  Level FlightAware
06:53AM 25.4460 54.5200 285° West 411 473 18,300  Level FlightAware
06:54AM 25.4630 54.4510 285° West 411 473 18,300 7,200 Level FlightAware
06:54AM 25.4950 54.3240 286° West 407 468 27,900 7,980 Climbing FlightAware
06:55AM 25.5130 54.2490 285° West 416 479 29,000 720 Climbing FlightAware
06:56AM 25.5320 54.1670 284° West 416 479 29,000 1,680 Level FlightAware
06:56AM 25.5590 54.0610 286° West 436 502 31,400 2,820 Climbing FlightAware
06:57AM 25.5800 53.9740 285° West 431 496 32,800 1,800 Climbing FlightAware
06:58AM 25.6060 53.8670 285° West 432 497 34,100 1,440 Climbing FlightAware
06:59AM 25.6250 53.7850 284° West 434 499 35,000 1,320 Climbing FlightAware
06:59AM 25.6460 53.6960 285° West 432 497 35,900 660 Climbing FlightAware
07:00AM 25.6690 53.6030 285° West 427 491 36,000 60 Climbing FlightAware
07:01AM 25.6880 53.5200 284° West 424 488 36,000  Level FlightAware
07:01AM 25.7120 53.4210 285° West 423 487 36,000  Level FlightAware
07:02AM 25.7320 53.3370 285° West 426 490 36,000  Level FlightAware
07:03AM 25.7480 53.2490 281° West 425 489 36,000  Level FlightAware
07:03AM 25.7580 53.1500 276° West 421 484 36,000  Level FlightAware
07:04AM 25.7660 53.0880 278° West 426 490 36,000  Level FlightAware
07:05AM 25.8040 52.9910 294° West 439 505 36,000  Level FlightAware
07:06AM 25.8510 52.8950 299° West 446 513 36,000  Level FlightAware
07:06AM 25.8900 52.8140 298° West 439 505 36,000  Level FlightAware
07:07AM 25.9330 52.7250 298° West 435 501 36,000  Level FlightAware
07:07AM 25.9610 52.6650 297° West 432 497 36,000  Level FlightAware
07:08AM 26.0000 52.5830 298° West 430 495 36,000  Level FlightAware
07:09AM 26.0410 52.4980 298° West 429 494 36,000  Level FlightAware
07:10AM 26.0880 52.4000 298° West 430 495 36,000  Level FlightAware
07:10AM 26.1240 52.3250 298° West 429 494 36,000  Level FlightAware
07:11AM 26.1590 52.2370 294° West 419 482 36,000  Level FlightAware
07:12AM 26.1690 52.1350 276° West 415 478 36,000  Level FlightAware
07:13AM 26.1760 52.0530 275° West 414 476 36,000  Level FlightAware
07:13AM 26.1840 51.9690 276° West 412 474 36,000  Level FlightAware
07:14AM 26.1930 51.8500 275° West 409 471 36,000  Level FlightAware
07:15AM 26.2000 51.7640 275° West 407 468 36,000  Level FlightAware
07:16AM 26.2070 51.6780 275° West 406 467 36,000  Level FlightAware
07:16AM 26.2170 51.6010 278° West 408 470 36,000  Level FlightAware
07:17AM 26.2550 51.5010 293° West 409 471 36,000  Level FlightAware
07:18AM 26.2930 51.4290 300° West 415 478 36,000  Level FlightAware
07:18AM 26.3410 51.3460 303° West 415 478 36,000  Level FlightAware
07:19AM 26.3820 51.2750 303° West 413 475 36,000  Level FlightAware
07:20AM 26.4360 51.1810 303° West 413 475 36,000  Level FlightAware
07:21AM 26.4860 51.0970 304° West 413 475 36,000  Level FlightAware
07:21AM 26.5270 51.0260 303° West 413 475 36,000  Level FlightAware
07:22AM 26.5640 50.9610 302° West 415 478 36,000  Level FlightAware
07:23AM 26.6090 50.8840 303° West 415 478 36,000  Level FlightAware
07:23AM 26.6560 50.8030 303° West 417 480 36,000  Level FlightAware
07:24AM 26.7030 50.7210 303° West 417 480 36,000  Level FlightAware
07:25AM 26.7380 50.6610 303° West 416 479 36,000  Level FlightAware
07:26AM 26.7960 50.5590 303° West 416 479 36,000  Level FlightAware
07:26AM 26.8310 50.4960 302° West 416 479 36,000  Level FlightAware
07:27AM 26.8650 50.4340 302° West 416 479 36,000  Level FlightAware
07:28AM 26.9000 50.3720 302° West 416 479 36,000  Level FlightAware
07:29AM 26.9430 50.2940 302° West 416 479 36,000  Level FlightAware
07:29AM 26.9780 50.2320 302° West 416 479 36,000  Level FlightAware
07:30AM 27.0130 50.1700 302° West 416 479 36,000  Level FlightAware
07:31AM 27.0470 50.1070 301° West 416 479 36,000  Level FlightAware
07:31AM 27.0820 50.0450 302° West 416 479 36,000  Level FlightAware
07:32AM 27.1250 49.9670 302° West 416 479 36,000  Level FlightAware
07:33AM 27.1600 49.9050 302° West 416 479 36,000  Level FlightAware
07:33AM 27.1950 49.8420 302° West 416 479 36,000  Level FlightAware
07:34AM 27.2290 49.7800 302° West 416 479 36,000  Level FlightAware
07:35AM 27.2640 49.7170 302° West 416 479 36,000 -420 Level FlightAware
07:38AM 27.4208 49.4246 301° West  Level Estimated
07:39AM 27.4783 49.3168 301° West  Level Estimated
07:39AM 27.9590 49.3820 301° West 440 506 34,000  Level FlightAware
07:40AM 28.0550 49.3160 329° Northwest 448 516 34,000  Level FlightAware
07:41AM 28.1170 49.2780 332° Northwest 447 514 34,000  Level FlightAware
07:41AM 28.2020 49.2260 332° Northwest 447 514 34,000  Level FlightAware
07:42AM 28.2770 49.1730 328° Northwest 438 504 34,000  Level FlightAware
07:43AM 28.3440 49.1250 328° Northwest 436 502 34,000  Level FlightAware
07:44AM 28.4210 49.0700 328° Northwest 434 499 34,000  Level FlightAware
07:44AM 28.4830 49.0270 329° Northwest 434 499 34,000  Level FlightAware
07:45AM 28.5690 48.9660 328° Northwest 435 501 34,000  Level FlightAware
07:46AM 28.6370 48.9180 328° Northwest 436 502 34,000  Level FlightAware
07:46AM 28.7170 48.8610 328° Northwest 437 503 34,000  Level FlightAware
07:47AM 28.7780 48.8170 328° Northwest 438 504 34,000  Level FlightAware
07:48AM 28.8460 48.7690 328° Northwest 438 504 34,000  Level FlightAware
07:48AM 28.9260 48.7120 328° Northwest 438 504 34,000  Level FlightAware
07:49AM 29.0210 48.6440 328° Northwest 436 502 34,000  Level FlightAware
07:50AM 29.0850 48.5980 328° Northwest 435 501 34,000  Level FlightAware
07:51AM 29.1850 48.5260 328° Northwest 435 501 34,000  Level FlightAware
07:52AM 29.2780 48.4590 328° Northwest 429 494 34,000  Level FlightAware
07:53AM 29.3520 48.4060 328° Northwest 428 493 34,000  Level FlightAware
07:53AM 29.4100 48.3640 328° Northwest 426 490 34,000  Level FlightAware
07:54AM 29.5090 48.2910 327° Northwest 426 490 34,000  Level FlightAware
07:55AM 29.5850 48.2370 328° Northwest 427 491 34,000  Level FlightAware
07:56AM 29.6650 48.1790 328° Northwest 428 493 34,000  Level FlightAware
07:57AM 29.7390 48.1240 327° Northwest 430 495 34,000  Level FlightAware
07:58AM 29.8450 48.0470 328° Northwest 430 495 34,000  Level FlightAware
07:58AM 29.9140 47.9970 328° Northwest 433 498 34,000  Level FlightAware
07:59AM 29.9760 47.9520 328° Northwest 433 498 34,000  Level FlightAware
08:00AM 30.0470 47.8850 321° Northwest 416 479 34,000  Level FlightAware
08:00AM 30.0980 47.8180 311° West 415 478 34,000  Level FlightAware
08:01AM 30.1780 47.7100 311° West 415 478 34,000  Level FlightAware
08:02AM 30.2150 47.6580 309° West 415 478 34,000  Level FlightAware
08:03AM 30.2690 47.5870 311° West 415 478 34,000  Level FlightAware
08:03AM 30.3110 47.5290 310° West 415 478 34,000  Level FlightAware
08:04AM 30.3530 47.4710 310° West 415 478 34,000  Level FlightAware
08:05AM 30.4050 47.3990 310° West 415 478 34,000  Level FlightAware
08:05AM 30.4470 47.3410 310° West 415 478 34,000  Level FlightAware
08:06AM 30.4890 47.2830 310° West 415 478 34,000  Level FlightAware
08:07AM 30.5310 47.2250 310° West 415 478 34,000  Level FlightAware
08:07AM 30.5730 47.1670 310° West 415 478 34,000  Level FlightAware
08:08AM 30.6250 47.0940 310° West 415 478 34,000  Level FlightAware
08:09AM 30.6670 47.0360 310° West 415 478 34,000  Level FlightAware
08:10AM 30.7090 46.9780 310° West 415 478 34,000  Level FlightAware
08:10AM 30.7510 46.9200 310° West 415 478 34,000  Level FlightAware
08:11AM 30.7930 46.8610 310° West 415 478 34,000  Level FlightAware
08:12AM 30.8460 46.7890 311° West 415 478 34,000  Level FlightAware
08:14AM 30.9352 46.5913 298° West  Level Estimated
08:15AM 30.9871 46.4760 298° West  Level Estimated
08:16AM 31.0388 46.3605 298° West  Level Estimated
08:17AM 31.0905 46.2450 298° West  Level Estimated
08:18AM 31.1420 46.1293 298° West  Level Estimated
08:19AM 31.1935 46.0135 297° West  Level Estimated
08:20AM 31.2448 45.8975 297° West  Level Estimated
08:21AM 31.2960 45.7814 297° West  Level Estimated
08:22AM 31.3471 45.6652 297° West  Level Estimated
08:23AM 31.3982 45.5489 297° West  Level Estimated
08:24AM 31.4491 45.4324 297° West  Level Estimated
08:25AM 31.4999 45.3159 297° West  Level Estimated
08:26AM 31.5506 45.1992 297° West  Level Estimated
08:26AM 32.4260 45.5150 297° West 447 514 34,000  Level FlightAware
08:26AM 32.5080 45.4340 320° Northwest 446 513 34,000  Level FlightAware
08:27AM 32.5620 45.3800 320° Northwest 446 513 34,000  Level FlightAware
08:28AM 32.6500 45.2950 321° Northwest 448 516 34,000  Level FlightAware
08:29AM 32.7160 45.2300 320° Northwest 450 518 34,000  Level FlightAware
08:29AM 32.7800 45.1670 320° Northwest 450 518 34,000  Level FlightAware
08:30AM 32.8530 45.0950 320° Northwest 452 520 34,000  Level FlightAware
08:31AM 32.9170 45.0320 320° Northwest 452 520 34,000  Level FlightAware
08:31AM 32.9880 44.9610 320° Northwest 452 520 34,000  Level FlightAware
08:32AM 33.0530 44.8970 320° Northwest 452 520 34,000  Level FlightAware
08:33AM 33.1220 44.8280 320° Northwest 453 521 34,000  Level FlightAware
08:33AM 33.1930 44.7580 320° Northwest 457 526 34,000  Level FlightAware
08:34AM 33.2630 44.7160 333° Northwest 465 535 34,000  Level FlightAware
08:35AM 33.3580 44.6810 343° North 465 535 34,000  Level FlightAware
08:36AM 33.4390 44.6520 343° North 465 535 34,000  Level FlightAware
08:36AM 33.5320 44.6160 342° North 465 535 34,000  Level FlightAware
08:37AM 33.6130 44.5780 339° North 465 535 34,000 180 Level FlightAware
08:38AM 33.6950 44.5380 338° Northwest 466 536 34,300 1,020 Climbing FlightAware
08:38AM 33.7820 44.4950 338° Northwest 465 535 35,500 1,200 Climbing FlightAware
08:39AM 33.8570 44.4570 337° Northwest 461 531 36,000 360 Climbing FlightAware
08:40AM 33.9370 44.4180 338° Northwest 460 529 36,000  Level FlightAware
08:41AM 34.0360 44.3690 338° Northwest 462 532 36,000  Level FlightAware
08:41AM 34.1020 44.3360 338° Northwest 463 533 36,000  Level FlightAware
08:42AM 34.1880 44.2940 338° Northwest 464 534 36,000  Level FlightAware
08:43AM 34.2700 44.2530 338° Northwest 462 532 36,000  Level FlightAware
08:43AM 34.3680 44.2040 338° Northwest 461 531 36,000  Level FlightAware
08:44AM 34.4580 44.1590 338° Northwest 462 532 36,000  Level FlightAware
08:45AM 34.5370 44.1190 337° Northwest 461 531 36,000  Level FlightAware
08:45AM 34.6160 44.0770 336° Northwest 462 532 36,000  Level FlightAware
08:46AM 34.7020 44.0320 337° Northwest 461 531 36,000  Level FlightAware
08:47AM 34.7810 43.9900 336° Northwest 459 528 36,000  Level FlightAware
08:48AM 34.8690 43.9440 337° Northwest 460 529 36,000  Level FlightAware
08:48AM 34.9490 43.9020 337° Northwest 459 528 36,000  Level FlightAware
08:49AM 35.0230 43.8630 337° Northwest 460 529 36,000  Level FlightAware
08:50AM 35.1120 43.8160 337° Northwest 460 529 36,000  Level FlightAware
08:50AM 35.1890 43.7750 336° Northwest 461 531 36,000  Level FlightAware
08:51AM 35.2690 43.7320 336° Northwest 460 529 36,000  Level FlightAware
08:52AM 35.3580 43.6850 337° Northwest 460 529 36,000  Level FlightAware
08:52AM 35.4360 43.6440 337° Northwest 458 527 36,000  Level FlightAware
08:53AM 35.5140 43.6020 336° Northwest 457 526 36,000  Level FlightAware
08:54AM 35.6000 43.5560 336° Northwest 458 527 36,000  Level FlightAware
08:54AM 35.6780 43.5140 336° Northwest 460 529 36,000  Level FlightAware
08:55AM 35.7640 43.4680 337° Northwest 462 532 36,000  Level FlightAware
08:56AM 35.8460 43.4230 336° Northwest 463 533 36,000  Level FlightAware
08:57AM 35.9320 43.3770 337° Northwest 462 532 36,000  Level FlightAware
08:57AM 36.0100 43.3350 336° Northwest 458 527 36,000  Level FlightAware
08:58AM 36.0880 43.2920 336° Northwest 457 526 36,000  Level FlightAware
08:59AM 36.1770 43.2430 336° Northwest 459 528 36,000  Level FlightAware
08:59AM 36.2550 43.2010 337° Northwest 458 527 36,000  Level FlightAware
09:00AM 36.3300 43.1600 336° Northwest 459 528 36,000  Level FlightAware
09:01AM 36.4180 43.1110 336° Northwest 459 528 36,000  Level FlightAware
09:01AM 36.4950 43.0680 336° Northwest 460 529 36,000  Level FlightAware
09:02AM 36.5850 43.0180 336° Northwest 460 529 36,000  Level FlightAware
09:03AM 36.6600 42.9770 336° Northwest 460 529 36,000  Level FlightAware
09:04AM 36.7490 42.9270 336° Northwest 460 529 36,000  Level FlightAware
09:04AM 36.8260 42.8840 336° Northwest 460 529 36,000  Level FlightAware
09:05AM 36.9030 42.8410 336° Northwest 458 527 36,000  Level FlightAware
09:06AM 36.9910 42.7930 336° Northwest 459 528 36,000  Level FlightAware
09:06AM 37.0700 42.7490 336° Northwest 460 529 36,000  Level FlightAware
09:07AM 37.1560 42.7010 336° Northwest 461 531 36,000  Level FlightAware
09:08AM 37.2330 42.6560 335° Northwest 459 528 36,000  Level FlightAware
09:08AM 37.3000 42.5920 323° Northwest 459 528 36,000  Level FlightAware
09:09AM 37.3630 42.5190 317° Northwest 458 527 36,000  Level FlightAware
09:10AM 37.4340 42.4360 317° Northwest 457 526 36,000  Level FlightAware
09:11AM 37.4960 42.3640 317° Northwest 455 524 36,000  Level FlightAware
09:11AM 37.5650 42.2850 318° Northwest 454 522 36,000  Level FlightAware
09:12AM 37.6260 42.2130 317° Northwest 452 520 36,000  Level FlightAware
09:13AM 37.6890 42.1410 318° Northwest 450 518 36,000  Level FlightAware
09:13AM 37.7530 42.0650 317° Northwest 449 517 36,000  Level FlightAware
09:14AM 37.8180 41.9900 318° Northwest 449 517 36,000  Level FlightAware
09:15AM 37.8790 41.9170 317° Northwest 447 514 36,000  Level FlightAware
09:15AM 37.9290 41.8220 304° West 444 511 36,000  Level FlightAware
09:16AM 37.9590 41.7250 291° West 445 512 36,000  Level FlightAware
09:17AM 37.9930 41.6160 292° West 447 514 36,000  Level FlightAware
09:18AM 38.0220 41.5220 291° West 448 516 36,000  Level FlightAware
09:18AM 38.0580 41.4060 292° West 450 518 36,000  Level FlightAware
09:19AM 38.0860 41.3150 291° West 449 517 36,000  Level FlightAware
09:20AM 38.1270 41.1800 291° West 449 517 36,000  Level FlightAware
09:21AM 38.1530 41.0960 292° West 449 517 36,000  Level FlightAware
09:21AM 38.1780 41.0120 291° West 449 517 36,000  Level FlightAware
09:22AM 38.2030 40.9280 291° West 449 517 36,000  Level FlightAware
09:23AM 38.2350 40.8230 291° West 449 517 36,000  Level FlightAware
09:23AM 38.2600 40.7390 291° West 449 517 36,000  Level FlightAware
09:24AM 38.2850 40.6550 291° West 449 517 36,000  Level FlightAware
09:25AM 38.3110 40.5710 292° West 449 517 36,000  Level FlightAware
09:25AM 38.3360 40.4870 291° West 449 517 36,000  Level FlightAware
09:26AM 38.3680 40.3820 291° West 449 517 36,000  Level FlightAware
09:27AM 38.3930 40.2980 291° West 449 517 36,000  Level FlightAware
09:28AM 38.4180 40.2140 291° West 449 517 36,000  Level FlightAware
09:28AM 38.4440 40.1300 292° West 449 517 36,000  Level FlightAware
09:29AM 38.4750 40.0240 291° West 449 517 36,000  Level FlightAware
09:32AM 38.5575 39.6881 288° West  Level Estimated
09:33AM 38.5907 39.5518 287° West  Level Estimated
09:34AM 38.6237 39.4153 287° West  Level Estimated
09:35AM 38.6565 39.2787 287° West  Level Estimated
09:36AM 38.6892 39.1419 287° West  Level Estimated
09:37AM 38.7218 39.0050 287° West  Level Estimated
09:38AM 38.7542 38.8680 287° West  Level Estimated
09:39AM 38.7864 38.7309 287° West  Level Estimated
09:40AM 38.8184 38.5937 287° West  Level Estimated
09:41AM 38.8503 38.4563 287° West  Level Estimated
09:42AM 38.8821 38.3188 287° West  Level Estimated
09:43AM 38.9137 38.1812 286° West  Level Estimated
09:44AM 38.9451 38.0435 286° West  Level Estimated
09:45AM 38.9763 37.9056 286° West  Level Estimated
09:46AM 39.0074 37.7676 286° West  Level Estimated
09:47AM 39.0383 37.6295 286° West  Level Estimated
09:48AM 39.0691 37.4913 286° West  Level Estimated
09:49AM 39.0997 37.3530 286° West  Level Estimated
09:50AM 39.1301 37.2145 286° West  Level Estimated
09:51AM 39.1604 37.0759 286° West  Level Estimated
09:52AM 39.1905 36.9372 286° West  Level Estimated
09:53AM 39.2205 36.7984 286° West  Level Estimated
09:54AM 39.2502 36.6595 286° West  Level Estimated
09:55AM 39.2798 36.5204 285° West  Level Estimated
09:56AM 39.3093 36.3812 285° West  Level Estimated
09:57AM 39.3386 36.2420 285° West  Level Estimated
09:58AM 39.3677 36.1026 285° West  Level Estimated
09:59AM 39.3966 35.9630 285° West  Level Estimated
10:00AM 39.4254 35.8234 285° West  Level Estimated
10:00AM 39.4980 34.7360 285° West 477 549 36,000  Level FlightAware
10:01AM 39.4540 35.6836 285° West  Level Estimated
10:01AM 39.5410 34.5450 286° West 477 549 36,000  Level FlightAware
10:02AM 39.5630 34.4460 286° West 477 549 36,000  Level FlightAware
10:03AM 39.6070 34.2450 286° West 479 551 36,000  Level FlightAware
10:04AM 39.6500 34.0500 286° West 480 552 36,000  Level FlightAware
10:05AM 39.6740 33.9390 286° West 480 552 36,000  Level FlightAware
10:06AM 39.7040 33.8000 286° West 481 554 36,000  Level FlightAware
10:08AM 39.7517 33.5461 284° West  Level Estimated
10:08AM 39.7700 33.4970 284° West 483 556 36,000  Level FlightAware
10:09AM 39.8140 33.2890 285° West 483 556 36,000  Level FlightAware
10:11AM 39.8584 33.0462 283° West  Level Estimated
10:11AM 39.8880 32.9360 283° West 483 556 36,000  Level FlightAware
10:11AM 39.9080 32.8380 285° West 482 555 36,000  Level FlightAware
10:14AM 39.9597 32.5472 283° West  Level Estimated
10:15AM 39.9847 32.4052 283° West  Level Estimated
10:15AM 40.0360 32.2100 283° West 483 556 36,000  Level FlightAware
10:18AM 40.0920 31.8825 283° West  Level Estimated
10:19AM 40.1161 31.7400 283° West  Level Estimated
10:19AM 40.1690 31.5320 283° West 482 555 36,000  Level FlightAware
10:20AM 40.1910 31.4170 284° West 482 555 36,000  Level FlightAware
10:21AM 40.2130 31.3040 284° West 483 556 36,000  Level FlightAware
10:23AM 40.2586 31.0226 282° West  Level Estimated
10:24AM 40.2816 30.8794 282° West  Level Estimated
10:24AM 40.3130 30.7640 282° West 484 557 36,000  Level FlightAware
10:24AM 40.3270 30.6460 279° West 487 560 36,000  Level FlightAware
10:25AM 40.3410 30.5230 279° West 487 560 36,000  Level FlightAware
10:26AM 40.3540 30.3990 278° West 487 560 36,000  Level FlightAware
10:26AM 40.3670 30.2800 278° West 486 559 36,000  Level FlightAware
10:27AM 40.3800 30.1500 278° West 486 559 36,000  Level FlightAware
10:28AM 40.3920 30.0330 278° West 486 559 36,000  Level FlightAware
10:29AM 40.4060 29.9030 278° West 485 558 36,000  Level FlightAware
10:29AM 40.4180 29.7840 278° West 485 558 36,000  Level FlightAware
10:30AM 40.4310 29.6540 278° West 485 558 36,000  Level FlightAware
10:31AM 40.4430 29.5380 278° West 485 558 36,000  Level FlightAware
10:31AM 40.4540 29.4220 277° West 485 558 36,000  Level FlightAware
10:32AM 40.4670 29.2920 278° West 484 557 36,000  Level FlightAware
10:33AM 40.4850 29.1750 281° West 480 552 36,000  Level FlightAware
10:34AM 40.5170 29.0530 289° West 478 550 36,000  Level FlightAware
10:34AM 40.5470 28.9470 290° West 476 548 36,000  Level FlightAware
10:35AM 40.5780 28.8340 290° West 476 548 36,000  Level FlightAware
10:36AM 40.6110 28.7130 290° West 475 547 36,000  Level FlightAware
10:36AM 40.6390 28.6010 288° West 474 545 36,000  Level FlightAware
10:37AM 40.6550 28.4890 281° West 482 555 36,000  Level FlightAware
10:38AM 40.6700 28.3590 279° West 482 555 36,000  Level FlightAware
10:38AM 40.6850 28.2270 279° West 482 555 36,000  Level FlightAware
10:39AM 40.6970 28.1130 278° West 480 552 36,000  Level FlightAware
10:40AM 40.7070 28.0260 279° West 479 551 36,000  Level FlightAware
10:40AM 40.7180 27.9230 278° West 478 550 36,000  Level FlightAware
10:41AM 40.7310 27.7970 278° West 477 549 36,000  Level FlightAware
10:42AM 40.7440 27.6740 278° West 476 548 36,000  Level FlightAware
10:43AM 40.7600 27.5130 278° West 475 547 36,000  Level FlightAware
10:43AM 40.7720 27.3980 278° West 473 544 36,000  Level FlightAware
10:44AM 40.7840 27.2800 278° West 473 544 36,000  Level FlightAware
10:45AM 40.7970 27.1510 278° West 472 543 36,000  Level FlightAware
10:45AM 40.8070 27.0460 277° West 471 542 36,000  Level FlightAware
10:46AM 40.8210 26.9070 278° West 469 540 36,000  Level FlightAware
10:47AM 40.8330 26.7810 277° West 468 539 36,000  Level FlightAware
10:48AM 40.8430 26.6690 277° West 468 539 36,000  Level FlightAware
10:48AM 40.8550 26.5420 277° West 468 539 36,000  Level FlightAware
10:49AM 40.8660 26.4300 277° West 469 540 36,000  Level FlightAware
10:50AM 40.8770 26.3120 277° West 470 541 36,000  Level FlightAware
10:50AM 40.8770 26.2020 270° West 475 547 36,000  Level FlightAware
10:51AM 40.8660 26.0760 263° West 475 547 36,000  Level FlightAware
10:52AM 40.8520 25.9410 262° West 477 549 36,000  Level FlightAware
10:53AM 40.8380 25.7960 263° West 476 548 36,000  Level FlightAware
10:53AM 40.8310 25.6710 266° West 473 544 36,000  Level FlightAware
10:54AM 40.8250 25.5830 265° West 473 544 36,000  Level FlightAware
10:55AM 40.8180 25.4850 265° West 473 544 36,000  Level FlightAware
10:55AM 40.8120 25.3100 267° West 473 544 36,000  Level FlightAware
10:56AM 40.8050 25.1820 266° West 473 544 36,000  Level FlightAware
10:57AM 40.7980 25.0640 266° West 474 545 36,000  Level FlightAware
10:58AM 40.7900 24.9330 265° West 473 544 36,000  Level FlightAware
10:59AM 40.7810 24.8110 264° West 473 544 36,000  Level FlightAware
10:59AM 40.7730 24.6600 266° West 471 542 36,000  Level FlightAware
11:00AM 40.7650 24.5380 265° West 471 542 36,000  Level FlightAware
11:02AM 40.7450 24.2200 265° West 471 542 36,000  Level FlightAware
11:02AM 40.7370 24.1010 265° West 472 543 36,000  Level FlightAware
11:03AM 40.7300 23.9970 265° West 471 542 36,000  Level FlightAware
11:04AM 40.7210 23.8640 265° West 472 543 36,000  Level FlightAware
11:05AM 40.7110 23.7310 264° West 472 543 36,000  Level FlightAware
11:06AM 40.7000 23.5730 265° West 470 541 36,000  Level FlightAware
11:06AM 40.6920 23.4680 264° West 471 542 36,000  Level FlightAware
11:07AM 40.6830 23.3470 264° West 472 543 36,000  Level FlightAware
11:08AM 40.6730 23.2080 265° West 474 545 36,000  Level FlightAware
11:08AM 40.6640 23.0930 264° West 474 545 36,000  Level FlightAware
11:09AM 40.6550 22.9690 265° West 472 543 36,000  Level FlightAware
11:10AM 40.6460 22.8590 264° West 470 541 36,000  Level FlightAware
11:10AM 40.6370 22.7440 264° West 471 542 36,000  Level FlightAware
11:11AM 40.6280 22.6320 264° West 470 541 36,000  Level FlightAware
11:12AM 40.6180 22.5040 264° West 470 541 36,000  Level FlightAware
11:12AM 40.6080 22.3890 264° West 468 539 36,000  Level FlightAware
11:13AM 40.5980 22.2640 264° West 469 540 36,000  Level FlightAware
11:14AM 40.5870 22.1340 264° West 467 537 36,000  Level FlightAware
11:15AM 40.5780 22.0240 264° West 468 539 36,000  Level FlightAware
11:15AM 40.5680 21.9090 264° West 469 540 36,000  Level FlightAware
11:16AM 40.5570 21.7830 263° West 470 541 36,000  Level FlightAware
11:17AM 40.5470 21.6700 263° West 469 540 36,000  Level FlightAware
11:17AM 40.5350 21.5420 263° West 465 535 36,000  Level FlightAware
11:18AM 40.5250 21.4300 263° West 465 535 36,000  Level FlightAware
11:19AM 40.5150 21.3220 263° West 465 535 36,000  Level FlightAware
11:20AM 40.5030 21.1910 263° West 464 534 36,000  Level FlightAware
11:20AM 40.4930 21.0820 263° West 461 531 36,000  Level FlightAware
11:21AM 40.4870 20.9680 266° West 459 528 36,000  Level FlightAware
11:22AM 40.4910 20.8490 273° West 457 526 36,000 480 Level FlightAware
11:22AM 40.4950 20.7340 273° West 458 527 36,700 1,260 Climbing FlightAware
11:23AM 40.5000 20.6080 273° West 461 531 37,800 900 Climbing FlightAware
11:24AM 40.5050 20.4960 273° West 461 531 38,000 120 Climbing FlightAware
11:24AM 40.5090 20.3880 273° West 463 533 38,000  Level FlightAware
11:25AM 40.5140 20.2680 273° West 466 536 38,000  Level FlightAware
11:26AM 40.5180 20.1710 273° West 468 539 38,000  Level FlightAware
11:27AM 40.5230 20.0290 273° West 467 537 38,000  Level FlightAware
11:27AM 40.5300 19.9230 275° West 466 536 38,000  Level FlightAware
11:28AM 40.5400 19.7950 276° West 465 535 38,000  Level FlightAware
11:29AM 40.5480 19.6940 276° West 464 534 38,000  Level FlightAware
11:29AM 40.5570 19.5920 277° West 466 536 38,000  Level FlightAware
11:30AM 40.5670 19.4700 276° West 465 535 38,000  Level FlightAware
11:31AM 40.5780 19.3310 276° West 465 535 38,000  Level FlightAware
11:31AM 40.5860 19.2370 276° West 467 537 38,000  Level FlightAware
11:32AM 40.5970 19.0970 276° West 469 540 38,000  Level FlightAware
11:33AM 40.6060 18.9820 276° West 468 539 38,000  Level FlightAware
11:33AM 40.6140 18.8730 276° West 469 540 38,000  Level FlightAware
11:34AM 40.6240 18.7420 276° West 470 541 38,000  Level FlightAware
11:35AM 40.6330 18.6190 276° West 472 543 38,000  Level FlightAware
11:36AM 40.6470 18.4270 276° West 471 542 38,000  Level FlightAware
11:37AM 40.6560 18.3140 276° West 472 543 38,000  Level FlightAware
11:37AM 40.6640 18.1990 275° West 470 541 38,000  Level FlightAware
11:38AM 40.6720 18.0740 275° West 468 539 38,000  Level FlightAware
11:39AM 40.6800 17.9610 275° West 465 535 38,000  Level FlightAware
11:39AM 40.6890 17.8310 275° West 463 533 38,000  Level FlightAware
11:40AM 40.6960 17.7200 275° West 465 535 38,000  Level FlightAware
11:41AM 40.7040 17.5970 275° West 464 534 38,000  Level FlightAware
11:41AM 40.7120 17.4850 275° West 464 534 38,000  Level FlightAware
11:42AM 40.7190 17.3730 275° West 463 533 38,000  Level FlightAware
11:43AM 40.7270 17.2410 275° West 462 532 38,000  Level FlightAware
11:44AM 40.7340 17.1290 275° West 463 533 38,000  Level FlightAware
11:44AM 40.7410 17.0070 274° West 464 534 38,000  Level FlightAware
11:45AM 40.7460 16.9220 274° West 465 535 38,000  Level FlightAware
11:46AM 40.7540 16.7820 274° West 466 536 38,000  Level FlightAware
11:46AM 40.7590 16.6850 274° West 466 536 38,000  Level FlightAware
11:47AM 40.7700 16.5100 275° West 469 540 38,000  Level FlightAware
11:48AM 40.7760 16.3950 274° West 468 539 38,000  Level FlightAware
11:49AM 40.7820 16.2820 274° West 467 537 38,000  Level FlightAware
11:49AM 40.7890 16.1510 274° West 466 536 38,000  Level FlightAware
11:50AM 40.7950 16.0430 274° West 466 536 38,000  Level FlightAware
11:51AM 40.8010 15.9170 274° West 465 535 38,000  Level FlightAware
11:51AM 40.8070 15.8020 274° West 462 532 38,000  Level FlightAware
11:52AM 40.8120 15.6910 273° West 461 531 38,000  Level FlightAware
11:53AM 40.8190 15.5610 274° West 458 527 38,000  Level FlightAware
11:53AM 40.8240 15.4500 273° West 460 529 38,000  Level FlightAware
11:54AM 40.8270 15.3260 272° West 459 528 38,000  Level FlightAware
11:55AM 40.8290 15.2140 271° West 459 528 38,000  Level FlightAware
11:56AM 40.8310 15.1040 271° West 459 528 38,000  Level FlightAware
11:56AM 40.8330 14.9730 271° West 459 528 38,000  Level FlightAware
11:57AM 40.8350 14.8620 271° West 459 528 38,000  Level FlightAware
11:58AM 40.8370 14.7500 271° West 454 522 38,000  Level FlightAware
11:58AM 40.8390 14.6290 271° West 453 521 38,000  Level FlightAware
11:59AM 40.8400 14.5310 271° West 453 521 38,000  Level FlightAware
12:00PM 40.8420 14.3920 271° West 450 518 38,000  Level FlightAware
12:00PM 40.8430 14.2820 271° West 448 516 38,000  Level FlightAware
12:01PM 40.8450 14.1630 271° West 448 516 38,000  Level FlightAware
12:02PM 40.8460 14.0530 271° West 449 517 38,000  Level FlightAware
12:03PM 40.8450 13.9460 269° West 447 514 38,000  Level FlightAware
12:03PM 40.8410 13.8210 268° West 446 513 38,000  Level FlightAware
12:04PM 40.8360 13.7120 267° West 442 509 38,000  Level FlightAware
12:05PM 40.8310 13.6060 266° West 442 509 38,000  Level FlightAware
12:05PM 40.8250 13.4890 266° West 437 503 38,000  Level FlightAware
12:06PM 40.8170 13.3400 266° West 440 506 38,000  Level FlightAware
12:07PM 40.8130 13.2660 266° West 441 507 38,000  Level FlightAware
12:08PM 40.8060 13.1270 266° West 443 510 38,000  Level FlightAware
12:08PM 40.8020 13.0370 267° West 443 510 38,000  Level FlightAware
12:09PM 40.7960 12.9360 266° West 443 510 38,000  Level FlightAware
12:10PM 40.7860 12.7540 266° West 446 513 38,000  Level FlightAware
12:11PM 40.7800 12.6420 266° West 449 517 38,000  Level FlightAware
12:11PM 40.7740 12.5250 266° West 450 518 38,000  Level FlightAware
12:12PM 40.7680 12.4220 266° West 449 517 38,000  Level FlightAware
12:13PM 40.7620 12.3160 266° West 447 514 38,000  Level FlightAware
12:13PM 40.7550 12.2050 265° West 448 516 38,000  Level FlightAware
12:14PM 40.7480 12.0870 266° West 448 516 38,000  Level FlightAware
12:15PM 40.7400 11.9660 265° West 448 516 38,000  Level FlightAware
12:15PM 40.7350 11.8820 266° West 449 517 38,000  Level FlightAware
12:16PM 40.7270 11.7530 265° West 450 518 38,000  Level FlightAware
12:17PM 40.7150 11.5680 265° West 451 519 38,000  Level FlightAware
12:18PM 40.7070 11.4540 265° West 453 521 38,000  Level FlightAware
12:19PM 40.7000 11.3420 265° West 451 519 38,000  Level FlightAware
12:19PM 40.6920 11.2190 265° West 448 516 38,000  Level FlightAware
12:20PM 40.6840 11.1100 265° West 448 516 38,000 480 Level FlightAware
12:21PM 40.6750 10.9860 265° West 448 516 38,700 660 Climbing FlightAware
12:21PM 40.6670 10.8760 265° West 444 511 39,000 180 Climbing FlightAware
12:22PM 40.6590 10.7660 265° West 447 514 39,000  Level FlightAware
12:23PM 40.6510 10.6440 265° West 451 519 39,000  Level FlightAware
12:24PM 40.6430 10.5360 264° West 454 522 39,000  Level FlightAware
12:24PM 40.6330 10.4110 264° West 457 526 39,000  Level FlightAware
12:25PM 40.6250 10.3000 265° West 459 528 39,000  Level FlightAware
12:26PM 40.6160 10.1920 264° West 462 532 39,000  Level FlightAware
12:26PM 40.6060 10.0630 264° West 464 534 39,000  Level FlightAware
12:27PM 40.5970 9.9510 264° West 464 534 39,000  Level FlightAware
12:28PM 40.5880 9.8370 264° West 465 535 39,000  Level FlightAware
12:28PM 40.5780 9.7130 264° West 465 535 39,000  Level FlightAware
12:29PM 40.5690 9.6000 264° West 463 533 39,000  Level FlightAware
12:30PM 40.5590 9.4880 263° West 461 531 39,000  Level FlightAware
12:31PM 40.5490 9.3650 264° West 459 528 39,000  Level FlightAware
12:31PM 40.5400 9.2620 263° West 462 532 39,000  Level FlightAware
12:33PM 40.5190 9.0190 264° West 468 539 39,000  Level FlightAware
12:33PM 40.5080 8.8910 264° West 469 540 39,000  Level FlightAware
12:34PM 40.4980 8.7790 263° West 471 542 39,000  Level FlightAware
12:35PM 40.4870 8.6640 263° West 471 542 39,000  Level FlightAware
12:35PM 40.4760 8.5370 264° West 473 544 39,000  Level FlightAware
12:36PM 40.4650 8.4220 263° West 474 545 39,000  Level FlightAware
12:37PM 40.4540 8.3090 263° West 472 543 39,000  Level FlightAware
12:38PM 40.4380 8.1840 260° West 468 539 39,000  Level FlightAware
12:38PM 40.4230 8.0710 260° West 464 534 39,000  Level FlightAware
12:39PM 40.4070 7.9460 260° West 466 536 39,000  Level FlightAware
12:40PM 40.3920 7.8330 260° West 462 532 39,000  Level FlightAware
12:40PM 40.3760 7.7110 260° West 459 528 39,000  Level FlightAware
12:41PM 40.3620 7.6020 260° West 460 529 39,000  Level FlightAware
12:42PM 40.3480 7.4910 261° West 461 531 39,000  Level FlightAware
12:42PM 40.3310 7.3690 260° West 460 529 39,000  Level FlightAware
12:43PM 40.3160 7.2580 260° West 458 527 39,000  Level FlightAware
12:44PM 40.3020 7.1500 260° West 459 528 39,000  Level FlightAware
12:45PM 40.2850 7.0250 260° West 460 529 39,000  Level FlightAware
12:45PM 40.2700 6.9160 260° West 461 531 39,000  Level FlightAware
12:46PM 40.2550 6.8080 260° West 464 534 39,000  Level FlightAware
12:47PM 40.2370 6.6820 259° West 468 539 39,000  Level FlightAware
12:47PM 40.2220 6.5720 260° West 469 540 39,000  Level FlightAware
12:48PM 40.2040 6.4460 259° West 470 541 39,000  Level FlightAware
12:49PM 40.1910 6.3560 259° West 471 542 39,000  Level FlightAware
12:49PM 40.1730 6.2370 259° West 471 542 39,000  Level FlightAware
12:50PM 40.1520 6.0840 260° West 477 549 39,000  Level FlightAware
12:51PM 40.1360 5.9770 259° West 477 549 39,000  Level FlightAware
12:52PM 40.1180 5.8520 259° West 479 551 39,000  Level FlightAware
12:52PM 40.1000 5.7310 259° West 479 551 39,000  Level FlightAware
12:53PM 40.0810 5.6060 259° West 476 548 39,000  Level FlightAware
12:54PM 40.0640 5.4910 259° West 476 548 39,000  Level FlightAware
12:54PM 40.0460 5.3740 259° West 482 555 39,000  Level FlightAware
12:55PM 40.0290 5.2630 259° West 483 556 39,000  Level FlightAware
12:56PM 40.0110 5.1420 259° West 481 554 39,000  Level FlightAware
12:56PM 39.9910 5.0140 259° West 482 555 39,000  Level FlightAware
12:57PM 39.9720 4.8950 258° West 484 557 39,000  Level FlightAware
12:58PM 39.9540 4.7810 258° West 486 559 39,000  Level FlightAware
12:59PM 39.9340 4.6540 258° West 482 555 39,000  Level FlightAware
12:59PM 39.9140 4.5250 259° West 480 552 39,000  Level FlightAware
01:00PM 39.8980 4.4270 258° West 481 554 39,000  Level FlightAware
01:01PM 39.8770 4.2980 258° West 478 550 39,000  Level FlightAware
01:01PM 39.8550 4.1740 257° West 475 547 39,000  Level FlightAware
01:02PM 39.8200 4.0080 255° West 472 543 39,000  Level FlightAware
01:03PM 39.7900 3.8650 255° West 470 541 39,000  Level FlightAware
01:04PM 39.7650 3.7470 255° West 470 541 39,000  Level FlightAware
01:06PM 39.7942 3.5250 280° West  Level Estimated
01:07PM 39.8128 3.3817 280° West  Level Estimated
01:08PM 39.8312 3.2383 280° West  Level Estimated
01:09PM 39.8494 3.0949 279° West  Level Estimated
01:10PM 39.8675 2.9513 279° West  Level Estimated
01:10PM 39.6700 2.7480 279° West 474 545 39,000  Level FlightAware
01:11PM 39.6640 2.6050 267° West 474 545 39,000  Level FlightAware
01:13PM 39.7053 2.3494 282° West  Level Estimated
01:14PM 39.7280 2.2073 282° West  Level Estimated
01:14PM 39.6400 2.0950 282° West 475 547 39,000  Level FlightAware
01:14PM 39.6340 1.9770 266° West 474 545 39,000  Level FlightAware
01:15PM 39.6270 1.8250 267° West 477 549 39,000  Level FlightAware
01:16PM 39.6180 1.6520 266° West 479 551 39,000  Level FlightAware
01:18PM 39.6070 1.4530 266° West 480 552 39,000  Level FlightAware
01:18PM 39.6000 1.3230 266° West 480 552 39,000  Level FlightAware
01:20PM 39.5880 1.1110 266° West 478 550 39,000  Level FlightAware
01:20PM 39.5810 0.9870 266° West 478 550 39,000  Level FlightAware
01:21PM 39.5730 0.8560 266° West 477 549 39,000  Level FlightAware
01:22PM 39.5660 0.7400 266° West 478 550 39,000  Level FlightAware
01:22PM 39.5600 0.6350 266° West 477 549 39,000  Level FlightAware
01:23PM 39.5510 0.4980 265° West 473 544 39,000  Level FlightAware
01:24PM 39.5430 0.3720 265° West 472 543 39,000  Level FlightAware
01:24PM 39.5360 0.2620 265° West 470 541 39,000  Level FlightAware
01:25PM 39.5290 0.1490 265° West 467 537 39,000  Level FlightAware
01:26PM 39.5200 0.0220 265° West 468 539 39,000  Level FlightAware
01:27PM 39.5130 -0.0860 265° West 468 539 39,000  Level FlightAware
01:27PM 39.5060 -0.1860 265° West 467 537 39,000  Level FlightAware
01:28PM 39.4980 -0.3090 265° West 465 535 39,000 -480 Level FlightAware
01:29PM 39.4900 -0.4230 265° West 468 539 38,400 -1,200 Descending FlightAware
01:29PM 39.4990 -0.5010 279° West 452 520 37,600 -1,740 Descending FlightAware
01:30PM 39.5360 -0.5980 296° West 428 493 36,400 -1,860 Descending FlightAware
01:30PM 39.5780 -0.6930 300° West 419 482 35,000 -2,280 Descending FlightAware
01:31PM 39.6180 -0.7820 300° West 426 490 33,200 -1,500 Descending FlightAware
01:32PM 39.6570 -0.8710 300° West 419 482 33,000 -180 Descending FlightAware
01:33PM 39.7010 -0.9710 300° West 422 486 33,000  Level FlightAware
01:33PM 39.7390 -1.0600 299° West 417 480 33,000 -1,200 Level FlightAware
01:34PM 39.7800 -1.1530 300° West 413 475 31,300 -2,160 Descending FlightAware
01:35PM 39.8160 -1.2360 299° West 407 468 30,000 -1,740 Descending FlightAware
01:35PM 39.8530 -1.3230 299° West 400 460 29,000 -1,560 Descending FlightAware
01:36PM 39.8950 -1.4180 300° West 396 456 27,800 -1,560 Descending FlightAware
01:37PM 39.9300 -1.5000 299° West 392 451 26,800 -1,440 Descending FlightAware
01:37PM 39.9640 -1.5790 299° West 384 442 25,900 -1,440 Descending FlightAware
01:38PM 40.0040 -1.6720 299° West 377 434 24,800 -1,500 Descending FlightAware
01:39PM 40.0380 -1.7520 299° West 375 432 23,800 -1,440 Descending FlightAware
01:40PM 40.0750 -1.8400 299° West 363 418 22,800 -1,380 Descending FlightAware
01:40PM 40.1060 -1.9110 300° West 360 414 21,900 -1,380 Descending FlightAware
01:41PM 40.1420 -1.9960 299° West 360 414 20,900 -1,140 Descending FlightAware
01:42PM 40.1740 -2.0730 299° West 338 389 20,300 -840 Descending FlightAware
01:42PM 40.2020 -2.1400 299° West 318 366 19,800 -1,080 Descending FlightAware
01:43PM 40.2360 -2.2190 299° West 309 356 18,800 -1,440 Descending FlightAware
01:44PM 40.2630 -2.2850 298° West 301 346 17,800 -1,200 Descending FlightAware
01:44PM 40.2900 -2.3500 299° West 270 311 17,100 -960 Descending FlightAware
01:45PM 40.3210 -2.3970 311° West 254 292 16,500 -780 Descending FlightAware
01:45PM 40.3390 -2.4000 353° North 260 299 16,400 -480 Descending FlightAware
01:46PM 40.3690 -2.3990 North 263 303 16,200 -540 Descending FlightAware
01:47PM 40.4250 -2.3980 North 264 304 15,800 -540 Descending FlightAware
01:47PM 40.4530 -2.4090 343° North 261 300 15,600 -600 Descending FlightAware
01:47PM 40.4640 -2.4290 306° West 258 297 15,400 -600 Descending FlightAware
01:48PM 40.4830 -2.4850 294° West 257 296 15,100 -480 Descending FlightAware
01:48PM 40.4840 -2.5010 275° West 255 293 15,000 -840 Descending FlightAware
01:49PM 40.4630 -2.5760 250° West 269 310 14,300 -900 Descending FlightAware
01:50PM 40.4420 -2.6360 245° Southwest 268 308 13,700 -900 Descending FlightAware
01:50PM 40.4220 -2.6950 246° West 263 303 13,100 -900 Descending FlightAware
01:51PM 40.4000 -2.7580 245° Southwest 258 297 12,500 -900 Descending FlightAware
01:52PM 40.3810 -2.8150 246° West 254 292 11,900 -840 Descending FlightAware
01:52PM 40.3610 -2.8730 246° West 265 305 11,400 -900 Descending FlightAware
01:53PM 40.3370 -2.9410 245° Southwest 264 304 10,700 -960 Descending FlightAware
01:54PM 40.3170 -2.9980 245° Southwest 259 298 10,100 -900 Descending FlightAware
01:54PM 40.3100 -3.0180 245° Southwest 256 295 9,900 -960 Descending FlightAware
01:54PM 40.2960 -3.0610 247° West 250 288 9,400 -1,200 Descending FlightAware
01:55PM 40.2830 -3.0960 244° Southwest 247 284 8,800 -1,680 Descending FlightAware
01:55PM 40.2750 -3.1380 256° West 235 270 7,900 -1,620 Descending FlightAware
01:56PM 40.2730 -3.1800 266° West 235 270 7,200 -1,320 Descending FlightAware
01:56PM 40.2720 -3.2230 268° West 236 272 6,600 -1,080 Descending FlightAware
01:57PM 40.2710 -3.2430 266° West 236 272 6,400 -780 Descending FlightAware
01:57PM 40.2760 -3.2790 280° West 234 269 6,100 -600 Descending FlightAware
01:57PM 40.2810 -3.2980 289° West 232 267 6,000 -300 Descending FlightAware
01:58PM 40.2890 -3.3330 287° West 232 267 5,900 -360 Descending FlightAware
01:58PM 40.3070 -3.3660 306° West 218 251 5,700 -420 Descending FlightAware
01:58PM 40.3180 -3.3780 320° Northwest 210 242 5,600 -600 Descending FlightAware
01:59PM 40.3360 -3.3970 321° Northwest 197 227 5,300 -900 Descending FlightAware
01:59PM 40.3470 -3.4080 323° Northwest 198 228 5,000 -1,080 Descending FlightAware
02:00PM 40.3680 -3.4290 323° Northwest 194 223 4,500 -1,140 Descending FlightAware
02:00PM 40.3870 -3.4480 323° Northwest 191 220 4,000 -1,140 Descending FlightAware
02:01PM 40.4070 -3.4690 321° Northwest 184 212 3,500 -960 Descending FlightAware
02:01PM 40.4170 -3.4790 323° Northwest 174 200 3,300 -900 Descending FlightAware
02:01PM 40.4320 -3.4940 323° Northwest 152 175 2,900 -900 Descending FlightAware
02:02PM 40.4490 -3.5110 323° Northwest 152 175 2,500 -840 Descending FlightAware
02:02PM 40.4650 -3.5280 321° Northwest 151 174 2,100 -840 Descending FlightAware